Accueil
METAR-TAF:

METAR-TAF

Aéroports :

Brize Norton, Angleterre

latitude: 51-45N, longitude: 001-35W, altitude: 88 m

Observation

Le bulletin a été fait il y a 35 minutes, à 04:50 UTC
Vent 3 kt de sud-ouest
Température 6°C
Humidité 87%
Pression 1035 hPa
Visibilité 10 km ou plus
pas de nuages en-dessous de 1500 mètres et pas de cumulonimbus.

METAR: EGVN 240450Z 22003KT CAVOK 06/04 Q1035 NOSIG

Heure: 06:25 (05:25 UTC)

Prévision

Le bulletin a été fait il y a 3 heures et 49 minutes, à 01:36 UTC
Prévision valable du 24 à 03 UTC au 25 à 03 UTC
Vent 4 kt de ouest
Visibilité 10 km ou plus
pas de nuages en-dessous de 1500 mètres et pas de cumulonimbus.

TAF: EGVN 240136Z 2403/2503 28004KT CAVOK

Observations et prévisions météorologiques de plus de 4000 aéroports (messages METAR et TAF).

Les stations disponibles sont représentées par des disques jaunes et rouges sur la carte.

Passer la souris dessus pour voir le nom de la station.

Cliquer dessus pour voir les observations et prévisions météorologiques.

Pour changer de carte: cliquez sur les boutons verts avec une croix noire pour zoomer, sur le bouton vert avec un tiret pour effectuer un zoom arrière, ou sur les flèches vertes pour les cartes adjacentes.


METAR-TAF: